Time;durP1;ratioP1;P1;durP2;ratioP2;P2;SDS_P1;SDS_P2;PMS_P1;PMS_P2;Temp;Humidity;BMP_temperature;BMP_pressure;BME280_temperature;BME280_humidity;BME280_pressure;Samples;Min_cycle;Max_cycle;Signal;HPM_P1;HPM_P2
2023/08/27 00:01:26;;;;;;;17.53;13.17;;;;;;;20.25;96.12;99659.72;4222973;28;22229;-64
2023/08/27 00:03:53;;;;;;;20.93;14.47;;;;;;;20.22;96.28;99654.69;4228093;28;23693;-64
2023/08/27 00:06:20;;;;;;;24.73;14.20;;;;;;;20.33;95.18;99650.31;4229172;28;20533;-63
2023/08/27 00:08:46;;;;;;;23.67;15.03;;;;;;;20.21;95.92;99649.41;4228147;28;20262;-63
2023/08/27 00:11:13;;;;;;;25.67;14.53;;;;;;;20.21;95.84;99641.19;4232480;28;20227;-64
2023/08/27 00:13:39;;;;;;;28.90;15.73;;;;;;;20.18;95.88;99628.75;4228202;28;21178;-65
2023/08/27 00:16:06;;;;;;;20.17;14.53;;;;;;;20.14;95.77;99621.19;4227678;28;21162;-62
2023/08/27 00:18:33;;;;;;;20.67;14.10;;;;;;;20.16;95.56;99633.63;4238934;28;21967;-64
2023/08/27 00:20:59;;;;;;;23.17;14.53;;;;;;;20.21;95.42;99639.25;4239057;28;20240;-65
2023/08/27 00:23:26;;;;;;;19.20;12.93;;;;;;;20.22;94.92;99651.09;4219204;28;20230;-66
2023/08/27 00:25:53;;;;;;;20.57;12.73;;;;;;;20.32;93.93;99656.88;4231039;28;20234;-64
2023/08/27 00:28:19;;;;;;;18.50;11.37;;;;;;;20.30;93.22;99667.28;4237765;28;20286;-67
2023/08/27 00:30:46;;;;;;;22.70;11.60;;;;;;;20.39;92.73;99667.81;4230352;28;20231;-63
2023/08/27 00:33:12;;;;;;;21.70;12.60;;;;;;;20.32;93.30;99656.88;4244705;28;20243;-64
2023/08/27 00:35:42;;;;;;;20.97;11.70;;;;;;;20.30;93.15;99655.44;4232300;28;23618;-67
2023/08/27 00:38:09;;;;;;;19.80;12.10;;;;;;;20.29;93.20;99662.00;4229377;28;20365;-64
2023/08/27 00:40:35;;;;;;;19.87;12.20;;;;;;;20.26;93.00;99680.66;4224362;28;20279;-64
2023/08/27 00:43:02;;;;;;;19.37;11.53;;;;;;;20.27;93.15;99696.06;4221271;28;20377;-63
2023/08/27 00:45:29;;;;;;;15.80;10.33;;;;;;;20.35;92.79;99710.56;4233306;28;20242;-65
2023/08/27 00:47:56;;;;;;;20.27;11.53;;;;;;;20.36;92.20;99717.72;4227965;28;22273;-66
2023/08/27 00:50:25;;;;;;;13.43;9.63;;;;;;;20.36;92.77;99709.47;4231340;28;20240;-65
2023/08/27 00:52:53;;;;;;;18.83;10.93;;;;;;;20.36;92.11;99706.72;4237861;28;20674;-66
2023/08/27 00:55:20;;;;;;;16.57;9.63;;;;;;;20.40;91.42;99702.47;4237286;28;20394;-64
2023/08/27 00:57:46;;;;;;;17.73;9.80;;;;;;;20.45;90.95;99697.09;4228694;28;20238;-66
2023/08/27 01:00:13;;;;;;;14.33;9.37;;;;;;;20.46;90.67;99709.78;4237184;28;20228;-63
2023/08/27 01:02:43;;;;;;;14.60;9.33;;;;;;;20.45;90.61;99705.34;4224641;28;20228;-66
2023/08/27 01:05:14;;;;;;;15.10;9.47;;;;;;;20.49;90.13;99701.09;4235904;28;20231;-65
2023/08/27 01:07:46;;;;;;;15.13;8.83;;;;;;;20.44;90.07;99689.94;4242978;28;20236;-64
2023/08/27 01:10:26;;;;;;;15.27;9.37;;;;;;;20.47;90.03;99692.22;4234737;28;20317;-63
2023/08/27 01:13:03;;;;;;;17.63;10.37;;;;;;;20.42;89.75;99675.59;4208710;28;20230;-64
2023/08/27 01:15:30;;;;;;;15.40;10.23;;;;;;;20.35;90.35;99688.59;4230436;28;21855;-64
2023/08/27 01:17:59;;;;;;;21.30;10.67;;;;;;;20.31;90.17;99679.09;4232859;28;20244;-67
2023/08/27 01:20:30;;;;;;;14.53;9.70;;;;;;;20.37;89.96;99686.44;4229820;28;20693;-63
2023/08/27 01:22:57;;;;;;;14.53;9.77;;;;;;;20.35;90.07;99691.34;4239567;28;20234;-65
2023/08/27 01:25:45;;;;;;;15.70;8.97;;;;;;;20.42;89.31;99692.09;4232916;28;20332;-65
2023/08/27 01:28:20;;;;;;;14.77;9.13;;;;;;;20.36;89.55;99690.25;4231677;28;20697;-63
2023/08/27 01:30:54;;;;;;;13.70;9.13;;;;;;;20.34;89.31;99697.91;4210365;28;21033;-63
2023/08/27 01:33:28;;;;;;;17.23;9.63;;;;;;;20.32;89.58;99703.59;4235868;28;20294;-64
2023/08/27 01:35:57;;;;;;;15.43;9.27;;;;;;;20.30;89.16;99703.00;4234992;28;20574;-63
2023/08/27 01:38:23;;;;;;;12.87;8.63;;;;;;;20.33;88.98;99707.22;4232271;28;20262;-64
2023/08/27 01:40:50;;;;;;;13.13;8.70;;;;;;;20.35;88.73;99724.31;4224086;28;22359;-66
2023/08/27 01:43:17;;;;;;;15.87;8.67;;;;;;;20.39;88.55;99731.03;4237719;28;20235;-65
2023/08/27 01:45:43;;;;;;;18.07;8.90;;;;;;;20.57;87.60;99736.53;4232633;28;22256;-65
2023/08/27 01:48:10;;;;;;;15.70;8.43;;;;;;;20.45;88.57;99752.09;4234175;28;20250;-67
2023/08/27 01:50:37;;;;;;;10.20;7.77;;;;;;;20.42;88.73;99744.31;4239216;28;21616;-66
2023/08/27 01:53:04;;;;;;;15.10;7.70;;;;;;;20.48;88.37;99751.66;4236495;28;20406;-64
2023/08/27 01:55:31;;;;;;;12.97;7.30;;;;;;;20.47;88.80;99758.22;4236159;28;20249;-66
2023/08/27 01:57:57;;;;;;;14.37;8.10;;;;;;;20.54;88.46;99758.13;4238482;28;21815;-63
2023/08/27 02:00:24;;;;;;;15.20;8.00;;;;;;;20.56;87.71;99764.22;4230130;28;20642;-64
2023/08/27 02:02:52;;;;;;;15.70;8.13;;;;;;;20.66;86.87;99766.44;4231234;28;20543;-64
2023/08/27 02:05:19;;;;;;;14.20;7.37;;;;;;;20.66;86.82;99758.19;4217044;28;20237;-66
2023/08/27 02:07:45;;;;;;;14.03;8.10;;;;;;;20.67;86.13;99741.47;4237859;28;20587;-66
2023/08/27 02:10:12;;;;;;;14.43;8.00;;;;;;;20.71;86.05;99737.16;4231929;28;21577;-65
2023/08/27 02:12:39;;;;;;;18.87;9.00;;;;;;;20.62;86.64;99730.31;4227390;28;20265;-64
2023/08/27 02:15:09;;;;;;;12.43;8.03;;;;;;;20.52;87.13;99722.59;4241856;28;20304;-62
2023/08/27 02:17:37;;;;;;;13.07;7.50;;;;;;;20.62;86.83;99732.22;4244857;28;25685;-64
2023/08/27 02:20:08;;;;;;;11.97;7.30;;;;;;;20.59;86.82;99720.59;4235582;28;21918;-65
2023/08/27 02:22:37;;;;;;;11.80;7.70;;;;;;;20.59;86.51;99719.78;4237724;28;20290;-64
2023/08/27 02:25:04;;;;;;;11.63;7.37;;;;;;;20.63;86.83;99722.91;4240290;28;20313;-65
2023/08/27 02:27:31;;;;;;;11.57;7.70;;;;;;;20.63;86.86;99723.75;4239192;28;20241;-64
2023/08/27 02:29:57;;;;;;;11.60;7.60;;;;;;;20.64;87.30;99716.34;4224544;28;20871;-66
2023/08/27 02:32:24;;;;;;;14.87;7.67;;;;;;;20.65;87.81;99723.53;4238446;28;20654;-63
2023/08/27 02:34:51;;;;;;;12.10;8.17;;;;;;;20.56;88.84;99721.09;4253027;28;20240;-63
2023/08/27 02:37:18;;;;;;;12.67;7.53;;;;;;;20.57;88.71;99719.16;4235239;28;20230;-65
2023/08/27 02:39:45;;;;;;;12.93;7.63;;;;;;;20.51;89.59;99715.44;4241552;28;20254;-63
2023/08/27 02:42:11;;;;;;;15.00;7.67;;;;;;;20.51;89.86;99722.84;4244174;28;20326;-65
2023/08/27 02:44:38;;;;;;;13.60;8.17;;;;;;;20.57;89.86;99733.78;4239753;28;20230;-64
2023/08/27 02:47:05;;;;;;;12.00;7.67;;;;;;;20.42;90.11;99725.91;4241554;28;20391;-65
2023/08/27 02:49:31;;;;;;;12.07;7.10;;;;;;;20.45;90.56;99721.84;4246672;28;20293;-63
2023/08/27 02:51:58;;;;;;;13.63;8.30;;;;;;;20.61;88.69;99725.03;4247543;28;21592;-66
2023/08/27 02:54:25;;;;;;;12.50;8.50;;;;;;;20.57;88.12;99722.78;4242664;28;20319;-65
2023/08/27 02:56:52;;;;;;;12.00;8.97;;;;;;;20.42;89.38;99711.34;4234111;28;20251;-66
2023/08/27 02:59:19;;;;;;;18.20;9.40;;;;;;;20.27;90.64;99709.81;4216559;28;20236;-64
2023/08/27 03:01:45;;;;;;;12.67;8.40;;;;;;;20.25;90.85;99705.59;4239092;28;20615;-63
2023/08/27 03:04:12;;;;;;;12.63;7.80;;;;;;;20.24;90.81;99704.75;4234371;28;20283;-65
2023/08/27 03:06:38;;;;;;;15.20;8.33;;;;;;;20.28;90.38;99702.41;4231608;28;20387;-64
2023/08/27 03:09:05;;;;;;;12.57;7.80;;;;;;;20.26;90.32;99702.63;4238868;28;20363;-63
2023/08/27 03:11:32;;;;;;;11.43;7.83;;;;;;;20.30;90.21;99703.00;4240619;28;20227;-63
2023/08/27 03:13:58;;;;;;;14.23;7.47;;;;;;;20.31;89.83;99693.72;4227233;28;20966;-64
2023/08/27 03:16:26;;;;;;;13.37;7.47;;;;;;;20.31;89.69;99682.72;4226890;28;21596;-63
2023/08/27 03:18:53;;;;;;;13.50;8.23;;;;;;;20.22;89.68;99678.59;4236935;28;20639;-62
2023/08/27 03:21:21;;;;;;;11.17;6.73;;;;;;;20.18;89.68;99672.72;4235267;28;22110;-64
2023/08/27 03:23:47;;;;;;;16.03;7.57;;;;;;;20.23;89.32;99680.28;4242780;28;20223;-63
2023/08/27 03:26:14;;;;;;;15.30;7.33;;;;;;;20.17;89.55;99678.41;4217038;28;20227;-63
2023/08/27 03:28:40;;;;;;;12.30;7.70;;;;;;;20.11;89.61;99667.28;4219254;28;20307;-66
2023/08/27 03:31:07;;;;;;;11.87;7.57;;;;;;;20.14;89.88;99659.66;4233906;28;21096;-65
2023/08/27 03:33:34;;;;;;;13.33;7.87;;;;;;;20.10;89.76;99648.28;4222849;28;20227;-65
2023/08/27 03:36:01;;;;;;;12.60;8.33;;;;;;;19.91;92.38;99641.97;4225325;28;24875;-63
2023/08/27 03:38:29;;;;;;;17.70;8.50;;;;;;;19.86;92.25;99639.88;4239776;28;20292;-66
2023/08/27 03:40:55;;;;;;;17.37;8.50;;;;;;;19.83;91.87;99640.31;4242537;28;20326;-63
2023/08/27 03:43:22;;;;;;;14.33;8.20;;;;;;;19.83;91.59;99629.31;4241514;28;20242;-65
2023/08/27 03:45:48;;;;;;;14.70;8.47;;;;;;;19.89;90.81;99622.09;4242719;28;20234;-66
2023/08/27 03:48:15;;;;;;;14.33;9.27;;;;;;;19.80;91.21;99616.88;4241921;28;20656;-64
2023/08/27 03:50:42;;;;;;;16.73;8.50;;;;;;;19.82;91.00;99619.44;4241591;28;21533;-67
2023/08/27 03:53:10;;;;;;;15.47;8.23;;;;;;;19.92;90.36;99608.75;4233064;28;20253;-63
2023/08/27 03:55:40;;;;;;;14.13;7.67;;;;;;;19.91;89.80;99603.50;4245872;28;20313;-63
2023/08/27 03:58:07;;;;;;;15.90;7.90;;;;;;;19.88;89.78;99603.94;4226027;28;21134;-64
2023/08/27 04:00:35;;;;;;;16.27;7.83;;;;;;;19.91;89.54;99609.81;4234883;28;20240;-64
2023/08/27 04:03:02;;;;;;;14.37;7.97;;;;;;;19.95;89.39;99612.94;4223529;28;25087;-64
2023/08/27 04:05:29;;;;;;;15.77;7.40;;;;;;;20.04;88.43;99605.25;4255418;28;25239;-66
2023/08/27 04:07:56;;;;;;;16.33;7.20;;;;;;;20.10;87.85;99605.16;4243124;28;22985;-64
2023/08/27 04:10:23;;;;;;;13.50;7.60;;;;;;;20.08;88.02;99600.97;4225062;28;20236;-67
2023/08/27 04:12:50;;;;;;;14.60;7.60;;;;;;;20.05;88.12;99599.53;4263277;28;20261;-66
2023/08/27 04:15:16;;;;;;;15.27;7.47;;;;;;;20.17;87.36;99595.97;4261087;28;20230;-66
2023/08/27 04:17:43;;;;;;;12.93;7.40;;;;;;;20.19;87.15;99605.69;4245560;28;21907;-65
2023/08/27 04:20:10;;;;;;;11.50;6.83;;;;;;;20.26;87.05;99611.94;4259940;28;20290;-63
2023/08/27 04:22:37;;;;;;;15.70;7.20;;;;;;;20.16;87.28;99619.88;4239625;28;20235;-64
2023/08/27 04:25:05;;;;;;;14.90;7.77;;;;;;;20.19;87.83;99633.19;4238998;28;20255;-63
2023/08/27 04:27:32;;;;;;;12.53;7.77;;;;;;;20.28;87.17;99636.44;4263774;28;20586;-62
2023/08/27 04:29:59;;;;;;;12.07;6.57;;;;;;;20.42;86.68;99653.59;4218797;28;21483;-63
2023/08/27 04:32:26;;;;;;;14.77;7.80;;;;;;;20.38;86.72;99650.47;4238153;28;20229;-63
2023/08/27 04:34:53;;;;;;;10.40;6.97;;;;;;;20.53;86.39;99641.81;4245011;28;20428;-65
2023/08/27 04:37:20;;;;;;;13.23;6.93;;;;;;;20.62;85.60;99634.06;4249606;28;20250;-65
2023/08/27 04:39:46;;;;;;;12.10;7.53;;;;;;;20.59;85.25;99631.78;4241485;28;25326;-64
2023/08/27 04:42:13;;;;;;;18.87;7.73;;;;;;;20.58;85.73;99622.69;4237825;28;20408;-63
2023/08/27 04:44:40;;;;;;;11.67;7.20;;;;;;;20.64;85.19;99625.59;4243616;28;20247;-65
2023/08/27 04:47:07;;;;;;;9.80;6.77;;;;;;;20.67;84.48;99625.97;4238013;28;20239;-66
2023/08/27 04:49:33;;;;;;;11.80;7.80;;;;;;;20.63;84.39;99627.50;4235923;28;22897;-63
2023/08/27 04:52:00;;;;;;;14.57;7.30;;;;;;;20.70;84.03;99633.72;4220427;28;20237;-64
2023/08/27 04:54:27;;;;;;;11.83;7.23;;;;;;;20.51;85.30;99632.13;4223717;28;20253;-62
2023/08/27 04:56:53;;;;;;;12.43;6.17;;;;;;;20.69;84.46;99629.31;4228249;28;21655;-66
2023/08/27 04:59:20;;;;;;;9.97;6.90;;;;;;;20.68;84.37;99624.91;4241002;28;20243;-64
2023/08/27 05:01:47;;;;;;;17.03;7.80;;;;;;;20.65;83.90;99628.09;4248723;28;20401;-67
2023/08/27 05:04:13;;;;;;;14.27;7.17;;;;;;;20.61;84.06;99629.66;4237986;28;20377;-65
2023/08/27 05:06:40;;;;;;;17.47;8.43;;;;;;;20.47;84.71;99629.00;4241830;28;22204;-64
2023/08/27 05:09:07;;;;;;;13.20;7.87;;;;;;;20.45;84.82;99628.38;4242609;28;20234;-65
2023/08/27 05:11:33;;;;;;;15.07;7.87;;;;;;;20.36;85.26;99621.53;4251345;28;22253;-65
2023/08/27 05:14:00;;;;;;;14.73;8.47;;;;;;;20.32;85.85;99628.56;4237410;28;21115;-66
2023/08/27 05:16:27;;;;;;;10.90;6.77;;;;;;;20.35;85.68;99620.69;4242059;28;20263;-64
2023/08/27 05:18:54;;;;;;;13.07;8.40;;;;;;;20.42;85.57;99632.44;4252958;28;21530;-64
2023/08/27 05:21:20;;;;;;;12.07;8.07;;;;;;;20.45;85.17;99627.56;4223382;28;22392;-65
2023/08/27 05:23:47;;;;;;;11.90;7.83;;;;;;;20.45;85.33;99630.31;4227952;28;20249;-64
2023/08/27 05:26:14;;;;;;;19.93;7.80;;;;;;;20.68;84.39;99627.66;4233886;28;20274;-64
2023/08/27 05:28:41;;;;;;;18.03;7.70;;;;;;;20.82;83.01;99633.81;4242405;28;21673;-65
2023/08/27 05:31:13;;;;;;;15.80;7.93;;;;;;;20.81;83.43;99634.88;4243433;28;23809;-67
2023/08/27 05:33:40;;;;;;;14.37;7.97;;;;;;;20.91;83.13;99634.31;4233681;28;20236;-67
2023/08/27 05:36:07;;;;;;;14.77;7.53;;;;;;;21.05;82.15;99621.16;4240908;28;20330;-64
2023/08/27 05:38:33;;;;;;;14.60;7.63;;;;;;;21.19;81.05;99641.06;4218651;28;20948;-65
2023/08/27 05:41:01;;;;;;;10.73;7.23;;;;;;;21.36;80.11;99644.81;4229900;28;20288;-68
2023/08/27 05:43:27;;;;;;;12.43;7.07;;;;;;;21.56;79.47;99648.28;4246556;28;20232;-64
2023/08/27 05:45:54;;;;;;;11.70;7.07;;;;;;;21.69;78.88;99651.63;4238654;28;21166;-67
2023/08/27 05:48:21;;;;;;;13.30;6.87;;;;;;;21.94;77.55;99646.97;4237252;28;20461;-68
2023/08/27 05:50:47;;;;;;;13.37;6.93;;;;;;;21.87;78.53;99637.97;4213611;28;20230;-66
2023/08/27 05:53:15;;;;;;;10.53;6.63;;;;;;;21.96;76.93;99633.75;4228329;28;21790;-66
2023/08/27 05:55:43;;;;;;;15.77;6.60;;;;;;;22.15;76.58;99635.28;4238764;28;21030;-64
2023/08/27 05:58:10;;;;;;;12.33;7.00;;;;;;;22.20;76.13;99634.56;4223050;28;23675;-68
2023/08/27 06:00:37;;;;;;;14.70;6.83;;;;;;;22.23;76.23;99631.31;4237280;28;20242;-66
2023/08/27 06:03:04;;;;;;;10.47;6.43;;;;;;;22.33;76.14;99625.16;4237460;28;20301;-64
2023/08/27 06:05:30;;;;;;;10.57;6.30;;;;;;;22.54;75.04;99620.09;4233641;28;20240;-67
2023/08/27 06:07:58;;;;;;;8.17;6.10;;;;;;;22.61;74.32;99626.28;4228909;28;20285;-66
2023/08/27 06:10:26;;;;;;;9.60;6.37;;;;;;;22.69;74.57;99631.41;4237685;28;20371;-66
2023/08/27 06:12:53;;;;;;;12.50;5.83;;;;;;;22.80;73.88;99632.44;4237722;28;20241;-65
2023/08/27 06:15:19;;;;;;;12.83;6.30;;;;;;;22.75;73.75;99622.13;4268799;28;20291;-73
2023/08/27 06:17:46;;;;;;;17.60;6.33;;;;;;;22.91;73.03;99616.88;4246825;28;21214;-71
2023/08/27 06:20:13;;;;;;;10.10;5.83;;;;;;;22.83;73.62;99603.50;4243703;28;20409;-73
2023/08/27 06:22:40;;;;;;;11.40;6.80;;;;;;;22.98;73.25;99609.28;4274914;28;20641;-76
2023/08/27 06:25:07;;;;;;;11.17;6.37;;;;;;;23.13;72.32;99610.63;4273942;28;21745;-74
2023/08/27 06:27:34;;;;;;;10.23;5.97;;;;;;;23.25;71.23;99606.72;4263217;28;20374;-76
2023/08/27 06:30:01;;;;;;;10.40;6.20;;;;;;;23.26;71.35;99599.25;4257739;28;20559;-75
2023/08/27 06:32:28;;;;;;;8.77;5.70;;;;;;;23.37;70.77;99603.88;4258174;28;20237;-74
2023/08/27 06:34:54;;;;;;;9.77;5.70;;;;;;;23.34;70.43;99598.84;4251085;28;20250;-75
2023/08/27 06:37:21;;;;;;;9.37;5.70;;;;;;;23.39;70.03;99593.38;4223843;28;21562;-71
2023/08/27 06:39:49;;;;;;;10.57;6.30;;;;;;;23.52;69.40;99610.72;4253474;28;26312;-74
2023/08/27 06:42:15;;;;;;;9.77;5.83;;;;;;;23.69;68.68;99614.25;4235944;28;20229;-68
2023/08/27 06:44:42;;;;;;;15.47;5.53;;;;;;;23.95;67.42;99605.50;4249903;28;20264;-71
2023/08/27 06:47:09;;;;;;;9.30;5.40;;;;;;;25.21;64.05;99601.84;4234051;28;20251;-72
2023/08/27 06:49:35;;;;;;;9.47;5.33;;;;;;;26.61;58.50;99603.41;4269240;28;20238;-71
2023/08/27 06:52:03;;;;;;;12.37;5.77;;;;;;;27.55;55.92;99607.88;4251539;28;20309;-74
2023/08/27 06:54:30;;;;;;;10.67;4.80;;;;;;;28.59;51.58;99595.22;4236070;28;20238;-72
2023/08/27 06:56:57;;;;;;;9.83;5.07;;;;;;;28.26;53.11;99603.22;4238015;28;21911;-73
2023/08/27 06:59:24;;;;;;;7.77;5.10;;;;;;;29.87;48.34;99604.44;4239409;28;20227;-77
2023/08/27 07:01:52;;;;;;;9.07;5.30;;;;;;;29.82;48.47;99598.09;4218756;28;20230;-75
2023/08/27 07:04:19;;;;;;;8.53;4.50;;;;;;;30.37;47.49;99602.47;4248034;28;20313;-75
2023/08/27 07:06:45;;;;;;;11.33;4.77;;;;;;;31.70;43.51;99610.69;4233694;28;20536;-72
2023/08/27 07:09:12;;;;;;;9.40;4.60;;;;;;;32.88;40.92;99623.31;4219641;28;20263;-71
2023/08/27 07:11:39;;;;;;;6.00;4.30;;;;;;;34.94;37.43;99616.75;4218160;28;22799;-67
2023/08/27 07:14:06;;;;;;;7.60;4.13;;;;;;;36.08;35.24;99608.03;4247484;28;22501;-74
2023/08/27 07:16:33;;;;;;;8.93;4.65;;;;;;;34.00;37.66;99589.00;4243166;28;20282;-70
2023/08/27 07:19:00;;;;;;;10.43;3.90;;;;;;;33.31;37.44;99588.34;4239715;28;21063;-74
2023/08/27 07:21:27;;;;;;;9.52;4.35;;;;;;;34.26;36.30;99581.47;4245063;28;20285;-70
2023/08/27 07:23:54;;;;;;;8.60;4.43;;;;;;;33.42;37.33;99589.75;4262971;28;22012;-71
2023/08/27 07:26:22;;;;;;;21.38;4.68;;;;;;;33.43;36.87;99601.78;4247204;28;20290;-73
2023/08/27 07:28:48;;;;;;;7.00;3.45;;;;;;;34.37;35.38;99598.06;4235851;28;20881;-70
2023/08/27 07:31:15;;;;;;;8.55;3.80;;;;;;;34.57;34.80;99600.22;4232835;28;20429;-73
2023/08/27 07:33:42;;;;;;;10.50;3.80;;;;;;;34.45;35.45;99591.59;4247030;28;21347;-71
2023/08/27 07:36:09;;;;;;;6.88;3.45;;;;;;;36.61;32.75;99600.06;4242437;28;20578;-70
2023/08/27 07:38:42;;;;;;;5.15;3.30;;;;;;;37.69;30.45;99610.81;4243732;28;20686;-71
2023/08/27 07:41:10;;;;;;;8.70;3.63;;;;;;;38.11;30.79;99610.59;4233111;28;20231;-71
2023/08/27 07:43:37;;;;;;;7.40;3.40;;;;;;;39.21;28.53;99613.53;4222665;28;21173;-71
2023/08/27 07:46:04;;;;;;;5.28;3.80;;;;;;;37.88;29.83;99610.28;4244986;28;20252;-70
2023/08/27 07:48:32;;;;;;;4.60;3.22;;;;;;;39.23;28.00;99604.69;4248856;28;20239;-72
2023/08/27 07:50:58;;;;;;;8.68;3.70;;;;;;;38.00;29.61;99613.09;4214020;28;20426;-72
2023/08/27 07:53:26;;;;;;;9.07;4.38;;;;;;;37.10;30.24;99616.41;4238498;28;20497;-75
2023/08/27 07:55:53;;;;;;;6.15;3.40;;;;;;;36.25;31.99;99618.38;4235113;28;20241;-74
2023/08/27 07:58:21;;;;;;;8.32;3.90;;;;;;;37.05;31.40;99619.47;4224081;28;20318;-72
2023/08/27 08:00:48;;;;;;;7.45;3.28;;;;;;;37.79;30.29;99626.47;4225509;28;20238;-76
2023/08/27 08:03:14;;;;;;;8.60;3.53;;;;;;;38.27;28.92;99632.50;4251619;28;20561;-75
2023/08/27 08:05:41;;;;;;;6.47;3.72;;;;;;;37.52;29.95;99632.44;4246731;28;20473;-73
2023/08/27 08:08:08;;;;;;;5.72;3.58;;;;;;;37.46;30.35;99633.84;4230497;28;20979;-74
2023/08/27 08:10:34;;;;;;;7.20;4.00;;;;;;;34.90;33.83;99619.41;4253887;28;20678;-77
2023/08/27 08:13:04;;;;;;;5.85;4.60;;;;;;;33.39;36.41;99618.44;4241319;28;20244;-75
2023/08/27 08:15:33;;;;;;;12.27;3.67;;;;;;;33.13;38.04;99607.03;4237931;28;20243;-74
2023/08/27 08:17:59;;;;;;;8.82;4.18;;;;;;;31.90;40.29;99589.03;4228988;28;21630;-75
2023/08/27 08:20:26;;;;;;;10.55;4.15;;;;;;;31.36;41.41;99588.66;4244357;28;20231;-75
2023/08/27 08:22:53;;;;;;;12.50;4.50;;;;;;;31.02;42.39;99584.16;4243199;28;20246;-73
2023/08/27 08:25:22;;;;;;;10.98;4.00;;;;;;;30.70;43.09;99578.25;4247855;28;20501;-75
2023/08/27 08:27:48;;;;;;;12.93;4.80;;;;;;;30.76;44.18;99582.63;4243236;28;20238;-77
2023/08/27 08:30:15;;;;;;;9.50;4.47;;;;;;;30.91;43.42;99581.56;4240626;28;20254;-75
2023/08/27 08:32:42;;;;;;;7.47;4.50;;;;;;;30.89;43.87;99577.41;4253716;28;21750;-77
2023/08/27 08:35:09;;;;;;;7.37;4.50;;;;;;;30.90;44.04;99579.91;4233570;28;20231;-74
2023/08/27 08:37:35;;;;;;;9.37;4.60;;;;;;;30.91;44.00;99577.91;4258940;28;20230;-73
2023/08/27 08:40:02;;;;;;;9.77;4.88;;;;;;;30.77;44.51;99584.28;4242423;28;20722;-74
2023/08/27 08:42:39;;;;;;;7.50;4.10;;;;;;;31.35;44.21;99584.19;4238503;28;22629;-76
2023/08/27 08:45:37;;;;;;;10.67;4.93;;;;;;;31.00;44.47;99589.25;4255105;28;20665;-76
2023/08/27 08:48:06;;;;;;;8.15;4.70;;;;;;;30.63;44.60;99584.22;4231695;28;20241;-75
2023/08/27 08:50:35;;;;;;;6.60;4.40;;;;;;;30.68;44.56;99586.09;4261041;28;21859;-77
2023/08/27 08:53:14;;;;;;;7.10;5.00;;;;;;;30.14;45.74;99572.31;4246172;28;20238;-76
2023/08/27 08:55:52;;;;;;;6.78;4.72;;;;;;;31.05;44.17;99577.97;4217748;28;20236;-74
2023/08/27 08:58:20;;;;;;;7.60;4.32;;;;;;;31.31;43.57;99569.19;4227229;28;22113;-76
2023/08/27 09:00:46;;;;;;;5.65;3.75;;;;;;;31.81;41.58;99560.94;4209376;28;20716;-74
2023/08/27 09:03:15;;;;;;;5.72;3.20;;;;;;;31.71;40.54;99559.19;4246944;28;20239;-73
2023/08/27 09:05:42;;;;;;;5.20;3.42;;;;;;;31.01;43.01;99568.56;4223796;28;20235;-77
2023/08/27 09:08:10;;;;;;;5.28;3.67;;;;;;;31.02;43.67;99559.00;4220044;28;20259;-74
2023/08/27 09:10:37;;;;;;;6.00;3.95;;;;;;;30.54;44.83;99552.53;4243772;28;21743;-74
2023/08/27 09:13:05;;;;;;;6.63;4.53;;;;;;;30.47;44.32;99541.72;4235146;28;20227;-75
2023/08/27 09:15:31;;;;;;;7.82;3.97;;;;;;;30.11;45.76;99538.59;4244901;28;20295;-77
2023/08/27 09:17:58;;;;;;;6.97;4.20;;;;;;;29.95;46.55;99536.00;4226525;28;20256;-74
2023/08/27 09:20:27;;;;;;;6.28;3.90;;;;;;;30.62;45.87;99542.63;4222685;28;20232;-73
2023/08/27 09:22:53;;;;;;;9.52;4.20;;;;;;;31.18;44.09;99552.06;4234005;28;22385;-75
2023/08/27 09:25:20;;;;;;;6.05;4.03;;;;;;;30.93;43.99;99564.47;4244396;28;20274;-75
2023/08/27 09:27:46;;;;;;;7.93;4.18;;;;;;;31.05;43.83;99567.63;4240458;28;20228;-76
2023/08/27 09:30:14;;;;;;;5.13;3.83;;;;;;;30.83;44.88;99557.91;4231042;28;22144;-74
2023/08/27 09:32:44;;;;;;;5.15;4.15;;;;;;;30.61;45.21;99558.56;4236317;28;20337;-73
2023/08/27 09:35:11;;;;;;;7.00;4.07;;;;;;;30.14;46.10;99546.38;4229731;28;20308;-74
2023/08/27 09:37:40;;;;;;;6.57;4.05;;;;;;;30.59;44.97;99538.50;4235502;28;20259;-73
2023/08/27 09:40:08;;;;;;;7.60;4.40;;;;;;;30.67;45.53;99540.59;4225028;28;20249;-74
2023/08/27 09:42:36;;;;;;;6.63;3.83;;;;;;;30.55;45.49;99533.81;4252002;28;20301;-73
2023/08/27 09:45:03;;;;;;;6.40;4.30;;;;;;;29.96;46.40;99525.69;4244456;28;20439;-75
2023/08/27 09:47:31;;;;;;;10.25;7.03;;;;;;;30.14;46.70;99524.06;4237461;28;20239;-74
2023/08/27 09:49:59;;;;;;;8.48;4.05;;;;;;;30.13;47.23;99526.03;4215536;28;21879;-74
2023/08/27 09:52:26;;;;;;;6.17;3.70;;;;;;;30.15;47.23;99520.94;4220698;28;20584;-77
2023/08/27 09:54:53;;;;;;;8.55;4.05;;;;;;;29.52;47.61;99519.22;4207883;28;22098;-75
2023/08/27 09:57:20;;;;;;;8.60;4.00;;;;;;;29.24;48.92;99516.16;4210174;28;20230;-74
2023/08/27 09:59:47;;;;;;;6.32;3.90;;;;;;;29.00;50.20;99507.78;4240897;28;21329;-75
2023/08/27 10:02:16;;;;;;;10.80;4.67;;;;;;;28.70;50.64;99510.53;4232194;28;20624;-70
2023/08/27 10:04:53;;;;;;;7.10;4.70;;;;;;;28.51;51.21;99501.22;4224736;28;20252;-70
2023/08/27 10:07:19;;;;;;;10.40;4.70;;;;;;;28.28;52.04;99493.28;4224702;28;20597;-68
2023/08/27 10:09:52;;;;;;;9.87;4.40;;;;;;;28.20;52.14;99488.31;4229958;28;20258;-71
2023/08/27 10:12:21;;;;;;;8.83;5.30;;;;;;;27.95;53.45;99490.09;4233216;28;20305;-69
2023/08/27 10:14:48;;;;;;;12.60;4.93;;;;;;;27.92;53.30;99487.06;4258756;28;20228;-71
2023/08/27 10:17:15;;;;;;;6.27;4.43;;;;;;;28.37;52.13;99487.94;4226710;28;20254;-69
2023/08/27 10:19:42;;;;;;;8.27;4.47;;;;;;;28.35;51.89;99501.31;4228930;28;22073;-70
2023/08/27 10:22:10;;;;;;;8.90;4.20;;;;;;;27.94;53.10;99491.25;4261226;28;20274;-70
2023/08/27 10:24:38;;;;;;;6.97;4.50;;;;;;;27.91;53.44;99479.88;4221884;28;20236;-74
2023/08/27 10:27:05;;;;;;;7.67;4.40;;;;;;;27.78;53.38;99484.91;4234435;28;20426;-70
2023/08/27 10:29:33;;;;;;;7.90;4.43;;;;;;;27.96;52.44;99480.66;4231619;28;20265;-69
2023/08/27 10:32:00;;;;;;;6.97;4.87;;;;;;;28.09;53.00;99487.56;4245497;28;21129;-69
2023/08/27 10:34:29;;;;;;;8.60;4.20;;;;;;;28.34;52.31;99482.09;4219666;28;20238;-68
2023/08/27 10:37:06;;;;;;;9.27;4.57;;;;;;;28.22;52.94;99486.09;4225823;28;20243;-68
2023/08/27 10:39:33;;;;;;;9.17;5.03;;;;;;;28.27;52.81;99497.19;4247467;28;20237;-68
2023/08/27 10:42:00;;;;;;;8.20;4.20;;;;;;;28.37;52.12;99490.72;4253497;28;20273;-69
2023/08/27 10:44:27;;;;;;;7.32;4.22;;;;;;;28.49;52.33;99483.97;4241038;28;20770;-71
2023/08/27 10:47:08;;;;;;;7.60;4.20;;;;;;;28.41;52.74;99472.31;4236552;28;21485;-68
2023/08/27 10:49:37;;;;;;;10.77;4.30;;;;;;;28.05;53.76;99460.56;4237911;28;20236;-69
2023/08/27 10:52:17;;;;;;;5.70;3.80;;;;;;;28.55;52.64;99469.69;4238554;28;20304;-71
2023/08/27 10:54:48;;;;;;;8.80;5.17;;;;;;;28.63;52.93;99451.53;4224069;28;20235;-68
2023/08/27 10:57:21;;;;;;;7.07;4.10;;;;;;;28.60;52.57;99450.19;4234328;28;20822;-68
2023/08/27 10:59:48;;;;;;;8.43;3.83;;;;;;;28.35;52.71;99470.72;4224150;28;20325;-66
2023/08/27 11:02:16;;;;;;;7.53;3.97;;;;;;;28.42;51.88;99468.44;4234486;28;20256;-71
2023/08/27 11:04:54;;;;;;;8.17;4.17;;;;;;;28.71;50.56;99470.44;4225079;28;20303;-71
2023/08/27 11:07:22;;;;;;;10.98;4.43;;;;;;;28.54;52.38;99461.63;4242940;28;21126;-70
2023/08/27 11:09:55;;;;;;;7.20;3.77;;;;;;;28.97;51.93;99450.66;4231767;28;20233;-70
2023/08/27 11:12:26;;;;;;;9.05;4.00;;;;;;;29.23;49.88;99453.19;4222797;28;20223;-71
2023/08/27 11:14:54;;;;;;;8.70;3.88;;;;;;;29.29;49.41;99463.16;4254200;28;20227;-68
2023/08/27 11:17:27;;;;;;;5.03;4.10;;;;;;;28.90;50.24;99456.59;4256682;28;21815;-68
2023/08/27 11:19:57;;;;;;;10.23;4.13;;;;;;;28.66;50.78;99458.47;4229326;28;20310;-67
2023/08/27 11:22:25;;;;;;;5.90;4.03;;;;;;;28.68;50.64;99461.81;4222742;28;23146;-68
2023/08/27 11:24:55;;;;;;;7.17;3.93;;;;;;;28.86;50.78;99455.50;4234450;28;25573;-70
2023/08/27 11:27:23;;;;;;;7.88;4.15;;;;;;;28.70;51.67;99459.59;4248971;28;22617;-69
2023/08/27 11:29:51;;;;;;;6.30;4.22;;;;;;;28.79;51.09;99449.47;4213034;28;20279;-70